sensor_id;sensor_type;location;lat;lon;timestamp;temperature;humidity
11836;DHT22;5977;51.972;7.640;2023-03-02T00:00:58;17.10;65.70
11836;DHT22;5977;51.972;7.640;2023-03-02T00:03:29;17.10;65.80
11836;DHT22;5977;51.972;7.640;2023-03-02T00:05:59;17.00;65.30
11836;DHT22;5977;51.972;7.640;2023-03-02T00:08:27;17.10;65.40
11836;DHT22;5977;51.972;7.640;2023-03-02T00:10:56;17.00;65.20
11836;DHT22;5977;51.972;7.640;2023-03-02T00:13:24;17.00;65.30
11836;DHT22;5977;51.972;7.640;2023-03-02T00:15:51;17.10;65.30
11836;DHT22;5977;51.972;7.640;2023-03-02T00:18:21;17.10;65.00
11836;DHT22;5977;51.972;7.640;2023-03-02T00:20:48;17.10;64.80
11836;DHT22;5977;51.972;7.640;2023-03-02T00:23:16;17.10;65.00
11836;DHT22;5977;51.972;7.640;2023-03-02T00:25:44;17.10;65.00
11836;DHT22;5977;51.972;7.640;2023-03-02T00:28:12;17.10;65.00
11836;DHT22;5977;51.972;7.640;2023-03-02T00:30:40;17.10;65.30
11836;DHT22;5977;51.972;7.640;2023-03-02T00:33:08;17.10;65.80
11836;DHT22;5977;51.972;7.640;2023-03-02T00:35:38;17.10;65.20
11836;DHT22;5977;51.972;7.640;2023-03-02T00:38:06;17.00;65.00
11836;DHT22;5977;51.972;7.640;2023-03-02T00:40:35;17.00;65.50
11836;DHT22;5977;51.972;7.640;2023-03-02T00:43:03;17.00;65.60
11836;DHT22;5977;51.972;7.640;2023-03-02T00:45:30;17.00;65.70
11836;DHT22;5977;51.972;7.640;2023-03-02T00:47:58;16.90;65.90
11836;DHT22;5977;51.972;7.640;2023-03-02T00:50:26;16.90;66.00
11836;DHT22;5977;51.972;7.640;2023-03-02T00:52:55;16.80;66.10
11836;DHT22;5977;51.972;7.640;2023-03-02T00:55:23;16.90;66.30
11836;DHT22;5977;51.972;7.640;2023-03-02T00:57:52;16.90;66.30
11836;DHT22;5977;51.972;7.640;2023-03-02T01:00:26;16.90;66.40
11836;DHT22;5977;51.972;7.640;2023-03-02T01:02:59;16.90;67.40
11836;DHT22;5977;51.972;7.640;2023-03-02T01:05:27;16.80;66.70
11836;DHT22;5977;51.972;7.640;2023-03-02T01:07:56;16.80;66.90
11836;DHT22;5977;51.972;7.640;2023-03-02T01:10:24;16.80;66.70
11836;DHT22;5977;51.972;7.640;2023-03-02T01:12:51;16.90;67.10
11836;DHT22;5977;51.972;7.640;2023-03-02T01:15:19;16.80;66.90
11836;DHT22;5977;51.972;7.640;2023-03-02T01:17:47;16.90;66.80
11836;DHT22;5977;51.972;7.640;2023-03-02T01:20:16;16.90;66.70
11836;DHT22;5977;51.972;7.640;2023-03-02T01:22:44;16.90;66.70
11836;DHT22;5977;51.972;7.640;2023-03-02T01:25:14;16.90;66.80
11836;DHT22;5977;51.972;7.640;2023-03-02T01:27:41;16.90;66.70
11836;DHT22;5977;51.972;7.640;2023-03-02T01:30:10;16.90;67.00
11836;DHT22;5977;51.972;7.640;2023-03-02T01:32:38;16.90;67.00
11836;DHT22;5977;51.972;7.640;2023-03-02T01:35:07;16.80;67.00
11836;DHT22;5977;51.972;7.640;2023-03-02T01:37:35;16.90;66.90
11836;DHT22;5977;51.972;7.640;2023-03-02T01:40:03;16.80;67.00
11836;DHT22;5977;51.972;7.640;2023-03-02T01:42:37;16.80;66.90
11836;DHT22;5977;51.972;7.640;2023-03-02T01:45:43;16.90;66.80
11836;DHT22;5977;51.972;7.640;2023-03-02T01:48:17;16.80;66.70
11836;DHT22;5977;51.972;7.640;2023-03-02T01:50:46;16.80;67.20
11836;DHT22;5977;51.972;7.640;2023-03-02T01:53:15;16.80;67.40
11836;DHT22;5977;51.972;7.640;2023-03-02T01:55:44;16.80;67.40
11836;DHT22;5977;51.972;7.640;2023-03-02T01:58:15;16.80;67.20
11836;DHT22;5977;51.972;7.640;2023-03-02T02:00:44;16.80;66.90
11836;DHT22;5977;51.972;7.640;2023-03-02T02:03:17;16.80;67.10
11836;DHT22;5977;51.972;7.640;2023-03-02T02:05:54;16.80;66.70
11836;DHT22;5977;51.972;7.640;2023-03-02T02:08:24;16.80;67.00
11836;DHT22;5977;51.972;7.640;2023-03-02T02:10:52;16.80;67.40
11836;DHT22;5977;51.972;7.640;2023-03-02T02:13:21;16.80;67.20
11836;DHT22;5977;51.972;7.640;2023-03-02T02:15:48;16.80;67.20
11836;DHT22;5977;51.972;7.640;2023-03-02T02:18:18;16.80;67.30
11836;DHT22;5977;51.972;7.640;2023-03-02T02:20:47;16.80;67.10
11836;DHT22;5977;51.972;7.640;2023-03-02T02:23:23;16.80;67.30
11836;DHT22;5977;51.972;7.640;2023-03-02T02:28:50;16.80;66.90
11836;DHT22;5977;51.972;7.640;2023-03-02T02:31:29;16.80;67.30
11836;DHT22;5977;51.972;7.640;2023-03-02T02:34:04;16.80;67.20
11836;DHT22;5977;51.972;7.640;2023-03-02T02:36:37;16.80;67.20
11836;DHT22;5977;51.972;7.640;2023-03-02T02:39:16;16.80;67.50
11836;DHT22;5977;51.972;7.640;2023-03-02T02:41:48;16.80;67.50
11836;DHT22;5977;51.972;7.640;2023-03-02T02:44:18;16.80;67.50
11836;DHT22;5977;51.972;7.640;2023-03-02T02:46:46;16.80;67.70
11836;DHT22;5977;51.972;7.640;2023-03-02T02:49:24;16.80;67.70
11836;DHT22;5977;51.972;7.640;2023-03-02T02:51:54;16.80;67.40
11836;DHT22;5977;51.972;7.640;2023-03-02T02:54:22;16.80;67.50
11836;DHT22;5977;51.972;7.640;2023-03-02T02:56:52;16.80;67.30
11836;DHT22;5977;51.972;7.640;2023-03-02T02:59:23;16.80;67.40
11836;DHT22;5977;51.972;7.640;2023-03-02T03:01:52;16.80;67.30
11836;DHT22;5977;51.972;7.640;2023-03-02T03:04:23;16.70;67.50
11836;DHT22;5977;51.972;7.640;2023-03-02T03:06:53;16.70;67.50
11836;DHT22;5977;51.972;7.640;2023-03-02T03:09:22;16.70;67.50
11836;DHT22;5977;51.972;7.640;2023-03-02T03:11:54;16.80;67.50
11836;DHT22;5977;51.972;7.640;2023-03-02T03:14:27;16.80;68.20
11836;DHT22;5977;51.972;7.640;2023-03-02T03:16:56;16.80;67.50
11836;DHT22;5977;51.972;7.640;2023-03-02T03:19:26;16.80;67.70
11836;DHT22;5977;51.972;7.640;2023-03-02T03:21:57;16.80;67.50
11836;DHT22;5977;51.972;7.640;2023-03-02T03:24:28;16.80;67.80
11836;DHT22;5977;51.972;7.640;2023-03-02T03:26:59;16.80;69.00
11836;DHT22;5977;51.972;7.640;2023-03-02T03:29:33;16.80;68.20
11836;DHT22;5977;51.972;7.640;2023-03-02T03:32:04;16.80;68.50
11836;DHT22;5977;51.972;7.640;2023-03-02T03:34:34;16.80;68.40
11836;DHT22;5977;51.972;7.640;2023-03-02T03:37:12;16.80;68.50
11836;DHT22;5977;51.972;7.640;2023-03-02T03:39:41;16.80;68.70
11836;DHT22;5977;51.972;7.640;2023-03-02T03:42:11;16.80;68.60
11836;DHT22;5977;51.972;7.640;2023-03-02T03:44:39;16.70;68.40
11836;DHT22;5977;51.972;7.640;2023-03-02T03:47:07;16.70;68.60
11836;DHT22;5977;51.972;7.640;2023-03-02T03:49:35;16.70;68.70
11836;DHT22;5977;51.972;7.640;2023-03-02T03:52:04;16.70;68.70
11836;DHT22;5977;51.972;7.640;2023-03-02T03:54:32;16.70;68.90
11836;DHT22;5977;51.972;7.640;2023-03-02T03:57:00;16.70;69.20
11836;DHT22;5977;51.972;7.640;2023-03-02T03:59:30;16.70;68.90
11836;DHT22;5977;51.972;7.640;2023-03-02T04:02:01;16.80;69.00
11836;DHT22;5977;51.972;7.640;2023-03-02T04:04:34;16.70;69.20
11836;DHT22;5977;51.972;7.640;2023-03-02T04:07:07;16.70;69.10
11836;DHT22;5977;51.972;7.640;2023-03-02T04:09:36;16.70;69.10
11836;DHT22;5977;51.972;7.640;2023-03-02T04:12:07;16.70;69.00
11836;DHT22;5977;51.972;7.640;2023-03-02T04:14:38;16.70;69.20
11836;DHT22;5977;51.972;7.640;2023-03-02T04:17:06;16.70;69.00
11836;DHT22;5977;51.972;7.640;2023-03-02T04:19:39;16.60;69.00
11836;DHT22;5977;51.972;7.640;2023-03-02T04:22:07;16.70;69.20
11836;DHT22;5977;51.972;7.640;2023-03-02T04:24:36;16.70;69.20
11836;DHT22;5977;51.972;7.640;2023-03-02T04:27:04;16.70;69.20
11836;DHT22;5977;51.972;7.640;2023-03-02T04:29:34;16.70;68.90
11836;DHT22;5977;51.972;7.640;2023-03-02T04:32:06;16.70;69.10
11836;DHT22;5977;51.972;7.640;2023-03-02T04:34:36;16.70;69.70
11836;DHT22;5977;51.972;7.640;2023-03-02T04:37:04;16.70;69.00
11836;DHT22;5977;51.972;7.640;2023-03-02T04:39:32;16.70;69.30
11836;DHT22;5977;51.972;7.640;2023-03-02T04:42:00;16.70;69.30
11836;DHT22;5977;51.972;7.640;2023-03-02T04:44:28;16.70;69.20
11836;DHT22;5977;51.972;7.640;2023-03-02T04:46:56;16.70;69.20
11836;DHT22;5977;51.972;7.640;2023-03-02T04:49:25;16.70;69.40
11836;DHT22;5977;51.972;7.640;2023-03-02T04:51:53;16.70;69.20
11836;DHT22;5977;51.972;7.640;2023-03-02T04:54:23;16.70;69.30
11836;DHT22;5977;51.972;7.640;2023-03-02T04:56:51;16.70;69.10
11836;DHT22;5977;51.972;7.640;2023-03-02T04:59:22;16.70;69.20
11836;DHT22;5977;51.972;7.640;2023-03-02T05:01:52;16.70;68.90
11836;DHT22;5977;51.972;7.640;2023-03-02T05:04:20;16.70;69.10
11836;DHT22;5977;51.972;7.640;2023-03-02T05:06:49;16.70;69.30
11836;DHT22;5977;51.972;7.640;2023-03-02T05:09:17;16.70;69.30
11836;DHT22;5977;51.972;7.640;2023-03-02T05:11:45;16.70;69.40
11836;DHT22;5977;51.972;7.640;2023-03-02T05:14:13;16.70;69.60
11836;DHT22;5977;51.972;7.640;2023-03-02T05:16:41;16.70;69.80
11836;DHT22;5977;51.972;7.640;2023-03-02T05:19:10;16.70;69.70
11836;DHT22;5977;51.972;7.640;2023-03-02T05:21:39;16.70;69.70
11836;DHT22;5977;51.972;7.640;2023-03-02T05:24:08;16.70;70.10
11836;DHT22;5977;51.972;7.640;2023-03-02T05:26:36;16.80;70.10
11836;DHT22;5977;51.972;7.640;2023-03-02T05:29:04;16.80;70.20
11836;DHT22;5977;51.972;7.640;2023-03-02T05:31:35;16.70;70.00
11836;DHT22;5977;51.972;7.640;2023-03-02T05:34:05;16.80;70.00
11836;DHT22;5977;51.972;7.640;2023-03-02T05:36:33;16.80;69.80
11836;DHT22;5977;51.972;7.640;2023-03-02T05:39:03;16.80;70.20
11836;DHT22;5977;51.972;7.640;2023-03-02T05:41:33;16.80;70.20
11836;DHT22;5977;51.972;7.640;2023-03-02T05:44:01;16.70;70.10
11836;DHT22;5977;51.972;7.640;2023-03-02T05:46:29;16.80;70.10
11836;DHT22;5977;51.972;7.640;2023-03-02T05:48:57;16.70;70.10
11836;DHT22;5977;51.972;7.640;2023-03-02T05:51:26;16.80;71.90
11836;DHT22;5977;51.972;7.640;2023-03-02T05:53:54;16.90;70.30
11836;DHT22;5977;51.972;7.640;2023-03-02T05:56:21;16.90;70.10
11836;DHT22;5977;51.972;7.640;2023-03-02T05:58:50;17.00;70.40
11836;DHT22;5977;51.972;7.640;2023-03-02T06:01:18;17.20;70.00
11836;DHT22;5977;51.972;7.640;2023-03-02T06:03:46;17.10;70.10
11836;DHT22;5977;51.972;7.640;2023-03-02T06:06:14;17.20;69.90
11836;DHT22;5977;51.972;7.640;2023-03-02T06:08:42;17.10;69.60
11836;DHT22;5977;51.972;7.640;2023-03-02T06:11:11;17.00;69.60
11836;DHT22;5977;51.972;7.640;2023-03-02T06:13:39;16.90;69.60
11836;DHT22;5977;51.972;7.640;2023-03-02T06:16:08;16.90;69.70
11836;DHT22;5977;51.972;7.640;2023-03-02T06:18:36;16.90;69.50
11836;DHT22;5977;51.972;7.640;2023-03-02T06:21:07;17.00;69.70
11836;DHT22;5977;51.972;7.640;2023-03-02T06:23:35;17.20;69.60
11836;DHT22;5977;51.972;7.640;2023-03-02T06:26:06;17.30;69.70
11836;DHT22;5977;51.972;7.640;2023-03-02T06:28:34;17.30;69.30
11836;DHT22;5977;51.972;7.640;2023-03-02T06:31:18;17.30;69.70
11836;DHT22;5977;51.972;7.640;2023-03-02T06:33:46;17.30;69.60
11836;DHT22;5977;51.972;7.640;2023-03-02T06:36:14;17.40;69.70
11836;DHT22;5977;51.972;7.640;2023-03-02T06:38:42;17.40;69.70
11836;DHT22;5977;51.972;7.640;2023-03-02T06:41:10;17.40;69.50
11836;DHT22;5977;51.972;7.640;2023-03-02T06:43:38;17.50;69.60
11836;DHT22;5977;51.972;7.640;2023-03-02T06:46:06;17.50;69.70
11836;DHT22;5977;51.972;7.640;2023-03-02T06:48:35;17.50;69.30
11836;DHT22;5977;51.972;7.640;2023-03-02T06:51:03;17.50;69.60
11836;DHT22;5977;51.972;7.640;2023-03-02T06:53:33;17.60;70.00
11836;DHT22;5977;51.972;7.640;2023-03-02T06:56:01;17.50;70.10
11836;DHT22;5977;51.972;7.640;2023-03-02T06:58:28;17.40;69.40
11836;DHT22;5977;51.972;7.640;2023-03-02T07:00:56;17.40;69.60
11836;DHT22;5977;51.972;7.640;2023-03-02T07:03:24;17.50;69.50
11836;DHT22;5977;51.972;7.640;2023-03-02T07:05:53;17.50;69.30
11836;DHT22;5977;51.972;7.640;2023-03-02T07:08:21;17.60;69.10
11836;DHT22;5977;51.972;7.640;2023-03-02T07:10:49;17.60;69.20
11836;DHT22;5977;51.972;7.640;2023-03-02T07:13:17;17.60;69.20
11836;DHT22;5977;51.972;7.640;2023-03-02T07:15:45;17.70;69.30
11836;DHT22;5977;51.972;7.640;2023-03-02T07:18:13;17.50;68.70
11836;DHT22;5977;51.972;7.640;2023-03-02T07:20:41;17.40;68.20
11836;DHT22;5977;51.972;7.640;2023-03-02T07:23:10;17.40;69.10
11836;DHT22;5977;51.972;7.640;2023-03-02T07:25:38;17.50;68.20
11836;DHT22;5977;51.972;7.640;2023-03-02T07:28:05;17.60;68.40
11836;DHT22;5977;51.972;7.640;2023-03-02T07:30:33;17.60;68.70
11836;DHT22;5977;51.972;7.640;2023-03-02T07:33:01;17.60;68.80
11836;DHT22;5977;51.972;7.640;2023-03-02T07:35:29;17.40;68.00
11836;DHT22;5977;51.972;7.640;2023-03-02T07:37:57;17.30;67.70
11836;DHT22;5977;51.972;7.640;2023-03-02T07:40:26;17.30;67.80
11836;DHT22;5977;51.972;7.640;2023-03-02T07:42:54;17.30;67.30
11836;DHT22;5977;51.972;7.640;2023-03-02T07:45:22;17.50;67.60
11836;DHT22;5977;51.972;7.640;2023-03-02T07:47:51;17.70;67.50
11836;DHT22;5977;51.972;7.640;2023-03-02T07:50:19;18.10;67.00
11836;DHT22;5977;51.972;7.640;2023-03-02T07:52:46;18.70;82.70
11836;DHT22;5977;51.972;7.640;2023-03-02T07:55:14;19.30;59.10
11836;DHT22;5977;51.972;7.640;2023-03-02T07:57:44;19.60;72.00
11836;DHT22;5977;51.972;7.640;2023-03-02T08:00:13;19.30;69.10
11836;DHT22;5977;51.972;7.640;2023-03-02T08:02:41;19.00;67.90
11836;DHT22;5977;51.972;7.640;2023-03-02T08:05:10;18.80;67.00
11836;DHT22;5977;51.972;7.640;2023-03-02T08:07:38;18.70;66.50
11836;DHT22;5977;51.972;7.640;2023-03-02T08:10:07;18.70;66.60
11836;DHT22;5977;51.972;7.640;2023-03-02T08:12:35;18.70;66.40
11836;DHT22;5977;51.972;7.640;2023-03-02T08:15:05;18.70;65.70
11836;DHT22;5977;51.972;7.640;2023-03-02T08:17:33;18.80;65.20
11836;DHT22;5977;51.972;7.640;2023-03-02T08:20:01;18.80;65.10
11836;DHT22;5977;51.972;7.640;2023-03-02T08:22:29;18.80;65.10
11836;DHT22;5977;51.972;7.640;2023-03-02T08:24:57;18.90;64.90
11836;DHT22;5977;51.972;7.640;2023-03-02T08:27:25;18.90;65.00
11836;DHT22;5977;51.972;7.640;2023-03-02T08:29:53;18.90;65.00
11836;DHT22;5977;51.972;7.640;2023-03-02T08:32:23;18.90;64.60
11836;DHT22;5977;51.972;7.640;2023-03-02T08:34:51;18.90;64.10
11836;DHT22;5977;51.972;7.640;2023-03-02T08:37:19;18.90;65.10
11836;DHT22;5977;51.972;7.640;2023-03-02T08:39:47;18.90;64.40
11836;DHT22;5977;51.972;7.640;2023-03-02T08:42:15;19.00;64.20
11836;DHT22;5977;51.972;7.640;2023-03-02T08:44:43;19.00;65.00
11836;DHT22;5977;51.972;7.640;2023-03-02T08:47:11;19.10;64.20
11836;DHT22;5977;51.972;7.640;2023-03-02T08:49:40;19.10;64.10
11836;DHT22;5977;51.972;7.640;2023-03-02T08:52:08;19.10;64.50
11836;DHT22;5977;51.972;7.640;2023-03-02T08:54:36;19.20;64.40
11836;DHT22;5977;51.972;7.640;2023-03-02T08:57:09;19.20;64.20
11836;DHT22;5977;51.972;7.640;2023-03-02T08:59:37;19.20;63.80
11836;DHT22;5977;51.972;7.640;2023-03-02T09:02:05;19.20;64.00
11836;DHT22;5977;51.972;7.640;2023-03-02T09:04:33;19.30;64.00
11836;DHT22;5977;51.972;7.640;2023-03-02T09:07:02;19.30;63.60
11836;DHT22;5977;51.972;7.640;2023-03-02T09:09:30;19.30;63.80
11836;DHT22;5977;51.972;7.640;2023-03-02T09:11:59;19.30;63.40
11836;DHT22;5977;51.972;7.640;2023-03-02T09:14:27;19.40;63.70
11836;DHT22;5977;51.972;7.640;2023-03-02T09:16:55;19.40;63.80
11836;DHT22;5977;51.972;7.640;2023-03-02T09:19:23;19.40;63.50
11836;DHT22;5977;51.972;7.640;2023-03-02T09:21:51;19.40;63.80
11836;DHT22;5977;51.972;7.640;2023-03-02T09:24:20;19.50;63.50
11836;DHT22;5977;51.972;7.640;2023-03-02T09:26:48;19.40;63.20
11836;DHT22;5977;51.972;7.640;2023-03-02T09:29:16;19.50;63.60
11836;DHT22;5977;51.972;7.640;2023-03-02T09:31:43;19.40;63.40
11836;DHT22;5977;51.972;7.640;2023-03-02T09:34:11;19.40;62.70
11836;DHT22;5977;51.972;7.640;2023-03-02T09:36:39;19.40;62.90
11836;DHT22;5977;51.972;7.640;2023-03-02T09:39:07;19.50;63.10
11836;DHT22;5977;51.972;7.640;2023-03-02T09:42:06;19.50;62.90
11836;DHT22;5977;51.972;7.640;2023-03-02T09:44:55;19.60;62.50
11836;DHT22;5977;51.972;7.640;2023-03-02T09:47:32;19.60;62.40
11836;DHT22;5977;51.972;7.640;2023-03-02T09:50:12;19.60;62.80
11836;DHT22;5977;51.972;7.640;2023-03-02T09:52:48;19.60;63.20
11836;DHT22;5977;51.972;7.640;2023-03-02T09:55:19;19.60;63.20
11836;DHT22;5977;51.972;7.640;2023-03-02T09:57:50;19.60;63.30
11836;DHT22;5977;51.972;7.640;2023-03-02T10:00:25;19.60;63.40
11836;DHT22;5977;51.972;7.640;2023-03-02T10:02:56;19.60;63.60
11836;DHT22;5977;51.972;7.640;2023-03-02T10:05:43;19.60;63.20
11836;DHT22;5977;51.972;7.640;2023-03-02T10:08:12;19.50;62.50
11836;DHT22;5977;51.972;7.640;2023-03-02T10:10:44;19.50;62.60
11836;DHT22;5977;51.972;7.640;2023-03-02T10:13:21;19.60;62.70
11836;DHT22;5977;51.972;7.640;2023-03-02T10:15:59;19.50;62.50
11836;DHT22;5977;51.972;7.640;2023-03-02T10:18:31;19.60;62.90
11836;DHT22;5977;51.972;7.640;2023-03-02T10:21:04;19.60;62.70
11836;DHT22;5977;51.972;7.640;2023-03-02T10:23:43;19.60;62.90
11836;DHT22;5977;51.972;7.640;2023-03-02T10:26:20;19.60;62.80
11836;DHT22;5977;51.972;7.640;2023-03-02T10:28:55;19.60;63.20
11836;DHT22;5977;51.972;7.640;2023-03-02T10:31:27;19.60;62.70
11836;DHT22;5977;51.972;7.640;2023-03-02T10:33:56;19.60;63.00
11836;DHT22;5977;51.972;7.640;2023-03-02T10:36:26;19.60;63.40
11836;DHT22;5977;51.972;7.640;2023-03-02T10:38:55;19.60;63.10
11836;DHT22;5977;51.972;7.640;2023-03-02T10:41:29;19.60;63.30
11836;DHT22;5977;51.972;7.640;2023-03-02T10:44:03;19.60;63.20
11836;DHT22;5977;51.972;7.640;2023-03-02T10:46:39;19.50;63.10
11836;DHT22;5977;51.972;7.640;2023-03-02T10:49:24;19.60;63.10
11836;DHT22;5977;51.972;7.640;2023-03-02T10:52:00;19.60;63.00
11836;DHT22;5977;51.972;7.640;2023-03-02T10:54:29;19.60;63.50
11836;DHT22;5977;51.972;7.640;2023-03-02T10:56:59;19.60;63.50
11836;DHT22;5977;51.972;7.640;2023-03-02T10:59:39;19.60;63.60
11836;DHT22;5977;51.972;7.640;2023-03-02T11:02:17;19.60;63.80
11836;DHT22;5977;51.972;7.640;2023-03-02T11:04:51;19.60;63.40
11836;DHT22;5977;51.972;7.640;2023-03-02T11:07:24;19.60;63.80
11836;DHT22;5977;51.972;7.640;2023-03-02T11:10:00;19.50;64.30
11836;DHT22;5977;51.972;7.640;2023-03-02T11:12:29;19.50;63.20
11836;DHT22;5977;51.972;7.640;2023-03-02T11:15:15;19.50;63.70
11836;DHT22;5977;51.972;7.640;2023-03-02T11:17:45;19.50;63.40
11836;DHT22;5977;51.972;7.640;2023-03-02T11:20:24;19.50;63.80
11836;DHT22;5977;51.972;7.640;2023-03-02T11:23:01;19.50;63.80
11836;DHT22;5977;51.972;7.640;2023-03-02T11:25:34;18.80;59.40
11836;DHT22;5977;51.972;7.640;2023-03-02T11:28:09;18.00;60.90
11836;DHT22;5977;51.972;7.640;2023-03-02T11:30:45;17.60;60.70
11836;DHT22;5977;51.972;7.640;2023-03-02T11:33:18;17.50;62.00
11836;DHT22;5977;51.972;7.640;2023-03-02T11:35:52;17.30;60.90
11836;DHT22;5977;51.972;7.640;2023-03-02T11:38:24;17.30;62.20
11836;DHT22;5977;51.972;7.640;2023-03-02T11:40:54;17.20;60.30
11836;DHT22;5977;51.972;7.640;2023-03-02T11:43:24;17.20;61.60
11836;DHT22;5977;51.972;7.640;2023-03-02T11:45:57;17.20;61.80
11836;DHT22;5977;51.972;7.640;2023-03-02T11:48:28;17.30;60.80
11836;DHT22;5977;51.972;7.640;2023-03-02T11:50:59;17.00;60.00
11836;DHT22;5977;51.972;7.640;2023-03-02T11:53:32;16.70;60.00
11836;DHT22;5977;51.972;7.640;2023-03-02T11:56:03;16.80;61.50
11836;DHT22;5977;51.972;7.640;2023-03-02T11:58:32;16.80;60.30
11836;DHT22;5977;51.972;7.640;2023-03-02T12:01:07;16.80;60.40
11836;DHT22;5977;51.972;7.640;2023-03-02T12:03:39;16.70;59.30
11836;DHT22;5977;51.972;7.640;2023-03-02T12:06:24;16.50;59.00
11836;DHT22;5977;51.972;7.640;2023-03-02T12:08:54;16.70;60.30
11836;DHT22;5977;51.972;7.640;2023-03-02T12:11:36;16.40;60.20
11836;DHT22;5977;51.972;7.640;2023-03-02T12:14:25;16.60;60.70
11836;DHT22;5977;51.972;7.640;2023-03-02T12:17:05;16.30;58.80
11836;DHT22;5977;51.972;7.640;2023-03-02T12:19:41;16.40;59.20
11836;DHT22;5977;51.972;7.640;2023-03-02T12:22:11;16.20;59.40
11836;DHT22;5977;51.972;7.640;2023-03-02T12:24:42;16.10;59.10
11836;DHT22;5977;51.972;7.640;2023-03-02T12:27:23;16.20;59.50
11836;DHT22;5977;51.972;7.640;2023-03-02T12:29:56;16.00;58.20
11836;DHT22;5977;51.972;7.640;2023-03-02T12:32:36;16.10;59.80
11836;DHT22;5977;51.972;7.640;2023-03-02T12:35:10;15.70;58.70
11836;DHT22;5977;51.972;7.640;2023-03-02T12:37:44;15.70;59.60
11836;DHT22;5977;51.972;7.640;2023-03-02T12:40:24;16.00;60.40
11836;DHT22;5977;51.972;7.640;2023-03-02T12:43:13;16.10;59.20
11836;DHT22;5977;51.972;7.640;2023-03-02T12:48:46;15.90;59.40
11836;DHT22;5977;51.972;7.640;2023-03-02T12:51:19;15.80;58.40
11836;DHT22;5977;51.972;7.640;2023-03-02T12:53:48;16.00;59.20
11836;DHT22;5977;51.972;7.640;2023-03-02T12:56:23;15.90;58.00
11836;DHT22;5977;51.972;7.640;2023-03-02T12:58:52;15.70;57.80
11836;DHT22;5977;51.972;7.640;2023-03-02T13:01:22;16.00;59.10
11836;DHT22;5977;51.972;7.640;2023-03-02T13:03:53;15.90;58.00
11836;DHT22;5977;51.972;7.640;2023-03-02T13:06:23;16.00;58.20
11836;DHT22;5977;51.972;7.640;2023-03-02T13:08:54;16.00;57.80
11836;DHT22;5977;51.972;7.640;2023-03-02T13:11:25;16.00;57.80
11836;DHT22;5977;51.972;7.640;2023-03-02T13:13:54;16.00;57.60
11836;DHT22;5977;51.972;7.640;2023-03-02T13:16:24;15.90;57.00
11836;DHT22;5977;51.972;7.640;2023-03-02T13:18:56;16.00;57.20
11836;DHT22;5977;51.972;7.640;2023-03-02T13:21:29;15.90;56.80
11836;DHT22;5977;51.972;7.640;2023-03-02T13:23:58;16.00;57.50
11836;DHT22;5977;51.972;7.640;2023-03-02T13:26:27;16.00;57.50
11836;DHT22;5977;51.972;7.640;2023-03-02T13:29:00;16.10;57.10
11836;DHT22;5977;51.972;7.640;2023-03-02T13:31:29;16.10;57.20
11836;DHT22;5977;51.972;7.640;2023-03-02T13:33:59;15.80;56.10
11836;DHT22;5977;51.972;7.640;2023-03-02T13:36:29;15.80;57.70
11836;DHT22;5977;51.972;7.640;2023-03-02T13:39:01;15.90;56.90
11836;DHT22;5977;51.972;7.640;2023-03-02T13:41:31;16.00;56.00
11836;DHT22;5977;51.972;7.640;2023-03-02T13:44:10;15.90;57.30
11836;DHT22;5977;51.972;7.640;2023-03-02T13:46:42;15.90;56.60
11836;DHT22;5977;51.972;7.640;2023-03-02T13:49:11;15.90;57.20
11836;DHT22;5977;51.972;7.640;2023-03-02T13:51:41;16.00;56.90
11836;DHT22;5977;51.972;7.640;2023-03-02T13:54:16;15.90;56.20
11836;DHT22;5977;51.972;7.640;2023-03-02T13:56:47;15.90;56.50
11836;DHT22;5977;51.972;7.640;2023-03-02T13:59:17;16.00;56.90
11836;DHT22;5977;51.972;7.640;2023-03-02T14:01:46;15.70;55.30
11836;DHT22;5977;51.972;7.640;2023-03-02T14:04:17;15.70;57.00
11836;DHT22;5977;51.972;7.640;2023-03-02T14:06:47;15.90;56.90
11836;DHT22;5977;51.972;7.640;2023-03-02T14:09:15;15.40;56.60
11836;DHT22;5977;51.972;7.640;2023-03-02T14:11:45;15.10;59.10
11836;DHT22;5977;51.972;7.640;2023-03-02T14:14:16;15.20;59.10
11836;DHT22;5977;51.972;7.640;2023-03-02T14:16:46;15.10;58.10
11836;DHT22;5977;51.972;7.640;2023-03-02T14:19:15;15.10;59.50
11836;DHT22;5977;51.972;7.640;2023-03-02T14:21:44;15.10;60.70
11836;DHT22;5977;51.972;7.640;2023-03-02T14:24:13;15.20;58.50
11836;DHT22;5977;51.972;7.640;2023-03-02T14:26:42;14.90;57.70
11836;DHT22;5977;51.972;7.640;2023-03-02T14:29:19;14.50;57.20
11836;DHT22;5977;51.972;7.640;2023-03-02T14:31:48;14.50;57.70
11836;DHT22;5977;51.972;7.640;2023-03-02T14:34:17;14.70;58.40
11836;DHT22;5977;51.972;7.640;2023-03-02T14:36:47;14.60;57.80
11836;DHT22;5977;51.972;7.640;2023-03-02T14:39:19;14.70;58.80
11836;DHT22;5977;51.972;7.640;2023-03-02T14:41:48;14.80;57.40
11836;DHT22;5977;51.972;7.640;2023-03-02T14:44:20;14.70;58.50
11836;DHT22;5977;51.972;7.640;2023-03-02T14:46:48;14.60;57.60
11836;DHT22;5977;51.972;7.640;2023-03-02T14:49:17;14.70;58.50
11836;DHT22;5977;51.972;7.640;2023-03-02T14:51:53;14.70;58.60
11836;DHT22;5977;51.972;7.640;2023-03-02T14:54:22;14.70;58.70
11836;DHT22;5977;51.972;7.640;2023-03-02T14:56:51;15.80;60.30
11836;DHT22;5977;51.972;7.640;2023-03-02T14:59:18;16.90;58.70
11836;DHT22;5977;51.972;7.640;2023-03-02T15:01:46;17.50;57.60
11836;DHT22;5977;51.972;7.640;2023-03-02T15:04:14;17.90;57.00
11836;DHT22;5977;51.972;7.640;2023-03-02T15:06:45;18.10;56.70
11836;DHT22;5977;51.972;7.640;2023-03-02T15:09:13;18.30;56.60
11836;DHT22;5977;51.972;7.640;2023-03-02T15:11:41;18.40;56.50
11836;DHT22;5977;51.972;7.640;2023-03-02T15:14:09;18.40;56.40
11836;DHT22;5977;51.972;7.640;2023-03-02T15:16:36;18.50;56.50
11836;DHT22;5977;51.972;7.640;2023-03-02T15:19:04;18.60;56.80
11836;DHT22;5977;51.972;7.640;2023-03-02T15:21:32;18.50;57.00
11836;DHT22;5977;51.972;7.640;2023-03-02T15:24:02;18.50;57.20
11836;DHT22;5977;51.972;7.640;2023-03-02T15:26:30;18.60;57.30
11836;DHT22;5977;51.972;7.640;2023-03-02T15:28:58;18.60;57.50
11836;DHT22;5977;51.972;7.640;2023-03-02T15:31:25;18.60;57.50
11836;DHT22;5977;51.972;7.640;2023-03-02T15:33:54;18.60;57.50
11836;DHT22;5977;51.972;7.640;2023-03-02T15:36:22;18.60;57.70
11836;DHT22;5977;51.972;7.640;2023-03-02T15:38:51;18.70;57.80
11836;DHT22;5977;51.972;7.640;2023-03-02T15:41:20;18.70;57.90
11836;DHT22;5977;51.972;7.640;2023-03-02T15:43:49;18.70;57.90
11836;DHT22;5977;51.972;7.640;2023-03-02T15:46:17;18.60;58.10
11836;DHT22;5977;51.972;7.640;2023-03-02T15:48:45;18.70;58.50
11836;DHT22;5977;51.972;7.640;2023-03-02T15:51:14;18.70;58.50
11836;DHT22;5977;51.972;7.640;2023-03-02T15:53:41;18.70;58.30
11836;DHT22;5977;51.972;7.640;2023-03-02T15:56:11;18.70;58.40
11836;DHT22;5977;51.972;7.640;2023-03-02T15:58:46;18.70;58.50
11836;DHT22;5977;51.972;7.640;2023-03-02T16:01:14;18.80;58.50
11836;DHT22;5977;51.972;7.640;2023-03-02T16:03:43;18.80;58.50
11836;DHT22;5977;51.972;7.640;2023-03-02T16:06:12;18.80;58.60
11836;DHT22;5977;51.972;7.640;2023-03-02T16:08:41;18.90;58.70
11836;DHT22;5977;51.972;7.640;2023-03-02T16:11:09;18.80;58.70